Time;durP1;ratioP1;P1;durP2;ratioP2;P2;SDS_P1;SDS_P2;PMS_P1;PMS_P2;Temp;Humidity;BMP_temperature;BMP_pressure;BME280_temperature;BME280_humidity;BME280_pressure;Samples;Min_cycle;Max_cycle;Signal;HPM_P1;HPM_P2
2023/09/22 00:01:04;;;;;;;7.00;2.30;;;;;;;18.72;61.57;101000.20;107608;1251;112002;-63
2023/09/22 00:03:33;;;;;;;12.50;2.90;;;;;;;18.68;61.64;101000.33;107594;1256;110563;-63
2023/09/22 00:06:02;;;;;;;10.70;5.20;;;;;;;18.64;62.13;101000.42;107565;1254;108925;-63
2023/09/22 00:08:32;;;;;;;6.80;2.80;;;;;;;18.58;62.21;100999.83;107527;1254;97848;-64
2023/09/22 00:11:08;;;;;;;4.60;2.60;;;;;;;18.54;62.28;100992.92;107621;1256;97842;-64
2023/09/22 00:13:36;;;;;;;8.50;2.70;;;;;;;18.50;62.32;100998.06;107616;1251;110630;-64
2023/09/22 00:16:04;;;;;;;9.80;2.60;;;;;;;18.46;62.45;100993.84;107552;1254;108743;-63
2023/09/22 00:18:33;;;;;;;9.30;2.20;;;;;;;18.43;62.59;100995.97;107586;1253;108722;-64
2023/09/22 00:21:04;;;;;;;8.50;2.70;;;;;;;18.41;62.79;100996.95;107549;1257;97841;-64
2023/09/22 00:23:32;;;;;;;12.60;2.60;;;;;;;18.38;62.99;100997.31;107577;1254;98149;-64
2023/09/22 00:26:02;;;;;;;9.90;2.10;;;;;;;18.37;63.05;101000.34;107605;1254;111059;-63
2023/09/22 00:28:31;;;;;;;5.30;2.60;;;;;;;18.37;63.06;100996.71;107601;1254;109334;-64
2023/09/22 00:30:59;;;;;;;7.00;2.50;;;;;;;18.37;63.24;101004.03;107501;1251;108015;-64
2023/09/22 00:33:28;;;;;;;5.00;2.30;;;;;;;18.34;63.09;101008.71;107596;1255;97816;-64
2023/09/22 00:36:03;;;;;;;5.20;2.20;;;;;;;18.31;63.28;101004.69;107587;1254;98482;-63
2023/09/22 00:38:31;;;;;;;6.80;2.00;;;;;;;18.28;63.25;101000.17;107451;1254;111434;-64
2023/09/22 00:40:59;;;;;;;9.30;2.60;;;;;;;18.25;63.39;101004.41;107533;1254;109293;-64
2023/09/22 00:43:28;;;;;;;6.70;2.20;;;;;;;18.24;63.55;101005.55;107631;1256;107823;-63
2023/09/22 00:45:56;;;;;;;4.20;1.80;;;;;;;18.20;63.47;101004.49;107586;1254;97828;-64
2023/09/22 00:48:34;;;;;;;12.80;3.00;;;;;;;18.17;63.53;100999.06;107493;1254;97294;-64
2023/09/22 00:51:03;;;;;;;10.00;2.70;;;;;;;18.14;63.60;100999.14;107630;1254;110429;-64
2023/09/22 00:53:34;;;;;;;10.80;3.00;;;;;;;18.12;63.59;100995.48;107532;1254;108959;-63
2023/09/22 00:56:02;;;;;;;12.40;2.50;;;;;;;18.11;63.67;101000.50;107526;1256;107515;-63
2023/09/22 00:58:31;;;;;;;7.40;2.20;;;;;;;18.09;63.70;100999.42;107556;1254;97902;-63
2023/09/22 01:00:59;;;;;;;12.30;2.60;;;;;;;18.08;63.58;100999.86;107642;1254;97739;-64
2023/09/22 01:03:29;;;;;;;8.70;2.40;;;;;;;18.08;63.78;100997.35;107552;1254;112281;-64
2023/09/22 01:05:58;;;;;;;8.90;2.60;;;;;;;18.07;63.72;101000.73;107623;1256;110056;-64
2023/09/22 01:08:27;;;;;;;11.40;2.90;;;;;;;18.05;63.72;100997.92;107545;1254;107280;-63
2023/09/22 01:10:57;;;;;;;15.00;2.60;;;;;;;18.03;63.77;101001.23;107512;1254;97840;-64
2023/09/22 01:13:25;;;;;;;10.20;3.00;;;;;;;18.00;63.73;101003.94;107661;1254;97714;-64
2023/09/22 01:15:55;;;;;;;17.00;2.20;;;;;;;17.98;63.72;100999.26;107562;1254;112180;-65
2023/09/22 01:18:24;;;;;;;9.90;2.10;;;;;;;17.97;63.74;100997.42;107624;1254;108161;-64
2023/09/22 01:20:58;;;;;;;14.70;2.40;;;;;;;17.94;63.73;100998.47;107598;1254;108659;-64
2023/09/22 01:23:27;;;;;;;8.80;2.40;;;;;;;17.91;63.68;100998.45;107611;1251;97853;-64
2023/09/22 01:25:55;;;;;;;11.70;2.10;;;;;;;17.87;63.72;100998.75;107648;1253;97826;-63
2023/09/22 01:28:24;;;;;;;12.30;2.20;;;;;;;17.84;63.79;100999.00;107646;1251;111772;-63
2023/09/22 01:30:52;;;;;;;15.70;2.80;;;;;;;17.80;63.66;100998.16;107618;1253;109672;-63
2023/09/22 01:33:21;;;;;;;11.20;3.50;;;;;;;17.76;63.62;100999.45;107634;1254;107879;-64
2023/09/22 01:35:49;;;;;;;9.70;2.50;;;;;;;17.70;63.52;100996.45;107562;1251;97867;-63
2023/09/22 01:38:19;;;;;;;9.60;2.40;;;;;;;17.64;63.70;101000.56;107602;1254;98359;-63
2023/09/22 01:40:48;;;;;;;12.10;2.70;;;;;;;17.60;63.68;101001.44;107465;1252;110940;-64
2023/09/22 01:43:19;;;;;;;5.70;2.40;;;;;;;17.56;63.73;100997.95;107621;1252;112117;-64
2023/09/22 01:45:47;;;;;;;11.80;3.40;;;;;;;17.53;63.90;100999.69;107598;1254;108513;-63
2023/09/22 01:48:16;;;;;;;8.80;2.90;;;;;;;17.50;63.87;100997.98;107530;1251;97864;-64
2023/09/22 01:50:44;;;;;;;17.80;3.20;;;;;;;17.47;63.94;100995.43;107623;1256;98610;-64
2023/09/22 01:53:12;;;;;;;11.50;2.90;;;;;;;17.45;63.87;100995.88;107581;1253;110827;-64
2023/09/22 01:55:41;;;;;;;12.90;2.90;;;;;;;17.41;63.98;100992.84;107606;1251;110285;-64
2023/09/22 01:58:11;;;;;;;7.70;2.40;;;;;;;17.41;64.11;100995.41;107610;1251;106023;-63
2023/09/22 02:00:39;;;;;;;4.50;2.10;;;;;;;17.40;64.13;100994.13;107532;1254;97921;-63
2023/09/22 02:03:08;;;;;;;4.00;2.00;;;;;;;17.40;64.23;100993.01;107616;1251;97967;-64
2023/09/22 02:05:37;;;;;;;7.40;2.80;;;;;;;17.41;64.31;100989.30;107609;1251;112176;-64
2023/09/22 02:08:07;;;;;;;11.20;3.10;;;;;;;17.41;64.36;100988.15;107551;1252;108955;-63
2023/09/22 02:10:35;;;;;;;6.50;2.50;;;;;;;17.42;64.41;100986.08;107560;1253;107922;-64
2023/09/22 02:13:05;;;;;;;9.50;2.90;;;;;;;17.43;64.63;100984.35;107540;1256;97919;-63
2023/09/22 02:15:35;;;;;;;13.60;2.90;;;;;;;17.44;64.62;100985.44;107576;1254;97727;-63
2023/09/22 02:18:04;;;;;;;10.30;2.70;;;;;;;17.45;64.61;100982.11;107576;1251;112118;-63
2023/09/22 02:20:32;;;;;;;17.30;2.20;;;;;;;17.47;64.68;100979.50;107607;1251;109068;-63
2023/09/22 02:23:01;;;;;;;6.50;2.50;;;;;;;17.49;64.74;100979.04;107620;1256;108556;-63
2023/09/22 02:25:29;;;;;;;7.40;2.50;;;;;;;17.50;64.74;100980.05;107570;1254;97877;-65
2023/09/22 02:27:58;;;;;;;7.30;2.20;;;;;;;17.50;64.98;100978.02;107563;1254;98389;-64
2023/09/22 02:30:27;;;;;;;11.20;2.80;;;;;;;17.51;64.86;100976.45;107561;1256;112129;-65
2023/09/22 02:32:56;;;;;;;4.40;2.10;;;;;;;17.54;64.97;100979.79;107595;1254;109687;-62
2023/09/22 02:35:25;;;;;;;8.20;2.90;;;;;;;17.56;64.99;100986.42;107618;1251;108517;-64
2023/09/22 02:37:53;;;;;;;4.20;1.90;;;;;;;17.58;65.06;100995.48;107566;1254;97855;-62
2023/09/22 02:40:21;;;;;;;5.50;2.40;;;;;;;17.61;65.05;100993.49;107601;1253;97792;-63
2023/09/22 02:42:50;;;;;;;5.20;2.00;;;;;;;17.64;65.13;100992.40;107600;1256;110913;-62
2023/09/22 02:45:18;;;;;;;10.30;2.50;;;;;;;17.70;65.19;100992.45;107583;1254;109433;-63
2023/09/22 02:47:48;;;;;;;8.90;3.10;;;;;;;17.74;65.07;100988.61;107548;1252;107947;-64
2023/09/22 02:50:18;;;;;;;12.90;2.50;;;;;;;17.76;65.01;100988.90;107537;1254;97864;-64
2023/09/22 02:52:47;;;;;;;12.00;2.50;;;;;;;17.76;65.10;100987.61;107627;1257;98018;-63
2023/09/22 02:55:39;;;;;;;13.20;2.20;;;;;;;17.78;65.13;100983.44;107588;1255;111934;-64
2023/09/22 02:58:08;;;;;;;9.70;2.00;;;;;;;17.77;65.28;100977.11;107511;1254;109549;-63
2023/09/22 03:00:43;;;;;;;12.30;2.30;;;;;;;17.79;65.35;100978.18;107551;1253;108266;-64
2023/09/22 03:03:16;;;;;;;8.50;2.30;;;;;;;17.80;65.68;100971.57;107568;1256;97864;-64
2023/09/22 03:05:46;;;;;;;3.70;2.20;;;;;;;17.77;65.85;100969.52;107581;1253;97763;-64
2023/09/22 03:08:14;;;;;;;14.90;4.70;;;;;;;17.76;65.97;100970.33;107525;1254;111832;-64
2023/09/22 03:10:43;;;;;;;4.50;2.50;;;;;;;17.76;66.19;100969.45;107536;1253;109115;-64
2023/09/22 03:13:11;;;;;;;7.20;2.90;;;;;;;17.75;66.27;100966.73;107563;1252;108896;-65
2023/09/22 03:15:39;;;;;;;7.60;3.20;;;;;;;17.74;66.38;100964.46;107547;1255;97846;-63
2023/09/22 03:18:08;;;;;;;5.30;2.20;;;;;;;17.75;66.48;100969.46;107527;1253;97715;-62
2023/09/22 03:20:37;;;;;;;5.80;2.40;;;;;;;17.74;66.59;100969.23;107618;1254;110547;-63
2023/09/22 03:23:05;;;;;;;8.70;2.40;;;;;;;17.74;66.52;100971.36;107510;1254;109964;-63
2023/09/22 03:25:34;;;;;;;14.40;2.50;;;;;;;17.75;66.81;100974.90;107530;1256;108234;-65
2023/09/22 03:28:04;;;;;;;8.40;2.30;;;;;;;17.76;66.89;100977.74;107388;1254;97847;-62
2023/09/22 03:30:32;;;;;;;5.10;2.10;;;;;;;17.78;67.04;100975.95;107621;1254;97764;-64
2023/09/22 03:33:01;;;;;;;6.10;2.70;;;;;;;17.79;67.53;100975.25;107582;1254;111585;-64
2023/09/22 03:35:31;;;;;;;12.30;2.80;;;;;;;17.78;67.82;100974.14;107636;1254;110319;-63
2023/09/22 03:38:05;;;;;;;9.00;2.40;;;;;;;17.75;68.11;100974.19;107606;1253;107570;-63
2023/09/22 03:40:40;;;;;;;9.30;2.50;;;;;;;17.72;68.15;100976.10;107576;1256;97975;-63
2023/09/22 03:43:09;;;;;;;5.50;2.20;;;;;;;17.72;68.30;100976.34;107610;1254;98398;-63
2023/09/22 03:45:37;;;;;;;11.90;2.30;;;;;;;17.71;68.82;100975.33;107564;1256;110785;-62
2023/09/22 03:48:07;;;;;;;6.80;2.60;;;;;;;17.69;69.12;100975.34;107503;1254;109862;-63
2023/09/22 03:50:36;;;;;;;7.30;2.60;;;;;;;17.68;69.16;100974.02;107549;1253;108608;-63
2023/09/22 03:53:05;;;;;;;9.50;2.90;;;;;;;17.70;68.99;100979.05;107494;1253;97880;-63
2023/09/22 03:55:33;;;;;;;5.60;2.90;;;;;;;17.72;68.98;100972.46;107622;1254;97734;-64
2023/09/22 03:58:01;;;;;;;6.80;3.50;;;;;;;17.75;68.99;100973.41;107545;1253;111338;-63
2023/09/22 04:00:30;;;;;;;3.50;2.10;;;;;;;17.77;69.24;100978.02;107562;1256;108808;-65
2023/09/22 04:03:03;;;;;;;13.60;2.80;;;;;;;17.80;69.60;100985.69;107564;1254;108248;-65
2023/09/22 04:05:32;;;;;;;8.40;2.30;;;;;;;17.82;69.62;100982.17;107552;1254;97833;-64
2023/09/22 04:08:00;;;;;;;3.50;2.40;;;;;;;17.83;69.56;100980.93;107548;1253;97809;-64
2023/09/22 04:10:29;;;;;;;9.10;2.50;;;;;;;17.85;69.62;100986.70;107579;1251;112042;-64
2023/09/22 04:12:57;;;;;;;7.60;2.20;;;;;;;17.89;69.63;100988.45;107597;1251;110705;-63
2023/09/22 04:15:25;;;;;;;4.80;2.30;;;;;;;17.91;69.68;100988.95;107614;1256;107594;-66
2023/09/22 04:17:54;;;;;;;10.30;2.40;;;;;;;17.96;69.50;100991.30;107587;1251;97841;-63
2023/09/22 04:20:35;;;;;;;5.30;2.60;;;;;;;18.01;69.27;100992.73;107594;1253;97867;-63
2023/09/22 04:23:05;;;;;;;5.90;2.30;;;;;;;18.06;69.27;100994.10;107479;1254;110884;-65
2023/09/22 04:25:36;;;;;;;7.90;2.30;;;;;;;18.10;69.04;100990.40;107584;1254;109960;-65
2023/09/22 04:28:17;;;;;;;8.70;2.60;;;;;;;18.12;68.98;100992.33;107572;1254;108245;-64
2023/09/22 04:30:46;;;;;;;11.10;3.30;;;;;;;18.18;69.26;100987.38;107633;1251;97728;-65
2023/09/22 04:33:15;;;;;;;4.60;2.30;;;;;;;18.18;69.03;100988.73;107556;1251;98379;-64
2023/09/22 04:35:44;;;;;;;10.50;3.00;;;;;;;18.20;69.05;100985.83;107549;1254;112100;-64
2023/09/22 04:38:14;;;;;;;9.00;3.10;;;;;;;18.21;69.15;100991.71;107635;1254;109972;-64
2023/09/22 04:40:43;;;;;;;7.80;3.00;;;;;;;18.22;69.04;100993.55;107636;1254;108147;-64
2023/09/22 04:43:12;;;;;;;5.00;2.80;;;;;;;18.24;69.06;100990.95;107540;1253;97931;-65
2023/09/22 04:45:43;;;;;;;12.30;3.00;;;;;;;18.23;68.92;100991.22;107654;1253;97704;-64
2023/09/22 04:48:13;;;;;;;8.00;2.40;;;;;;;18.22;69.22;100989.91;107568;1255;111788;-66
2023/09/22 04:50:42;;;;;;;11.60;2.50;;;;;;;18.22;69.27;100996.27;107581;1254;110040;-63
2023/09/22 04:53:11;;;;;;;9.20;2.70;;;;;;;18.24;69.55;100997.64;107589;1255;108632;-64
2023/09/22 04:55:39;;;;;;;13.20;2.60;;;;;;;18.26;69.65;100993.65;107570;1252;97825;-64
2023/09/22 04:58:08;;;;;;;8.20;2.80;;;;;;;18.27;69.23;100991.16;107592;1253;97790;-64
2023/09/22 05:00:37;;;;;;;9.60;3.00;;;;;;;18.30;69.25;100988.86;107582;1251;111479;-63
2023/09/22 05:03:07;;;;;;;10.40;2.90;;;;;;;18.36;69.16;100986.54;107568;1251;108996;-64
2023/09/22 05:05:35;;;;;;;9.20;3.00;;;;;;;18.40;69.04;100984.90;107538;1253;108842;-64
2023/09/22 05:08:05;;;;;;;14.60;3.10;;;;;;;18.44;69.59;100984.96;107572;1252;97845;-64
2023/09/22 05:10:33;;;;;;;12.50;3.60;;;;;;;18.48;69.41;100982.77;107573;1251;97719;-64
2023/09/22 05:13:03;;;;;;;6.30;2.50;;;;;;;18.53;69.17;100977.61;107541;1254;111819;-65
2023/09/22 05:15:33;;;;;;;10.70;2.70;;;;;;;18.58;68.94;100971.67;107574;1254;109843;-62
2023/09/22 05:18:01;;;;;;;10.50;2.90;;;;;;;18.63;69.07;100975.68;107534;1251;108076;-65
2023/09/22 05:20:31;;;;;;;28.50;2.90;;;;;;;18.65;68.81;100976.05;107591;1255;97925;-63
2023/09/22 05:23:00;;;;;;;14.50;3.00;;;;;;;18.69;68.78;100982.60;107626;1253;98383;-64
2023/09/22 05:25:28;;;;;;;5.50;2.80;;;;;;;18.73;68.71;100989.67;107652;1253;111332;-64
2023/09/22 05:27:56;;;;;;;10.60;2.70;;;;;;;18.77;68.58;100993.20;107602;1251;109818;-63
2023/09/22 05:30:26;;;;;;;10.10;4.40;;;;;;;18.82;68.50;100997.33;107595;1254;106414;-64
2023/09/22 05:32:54;;;;;;;13.30;3.10;;;;;;;18.86;68.48;101001.74;107546;1253;97822;-64
2023/09/22 05:35:23;;;;;;;14.40;4.20;;;;;;;18.91;68.36;101004.47;107634;1252;97681;-64
2023/09/22 05:37:52;;;;;;;9.10;3.00;;;;;;;18.95;68.38;100995.30;107552;1254;110861;-63
2023/09/22 05:40:20;;;;;;;9.20;3.10;;;;;;;18.97;68.62;100992.67;107613;1251;108919;-64
2023/09/22 05:42:48;;;;;;;13.20;3.40;;;;;;;18.96;68.65;100991.19;107577;1251;107718;-63
2023/09/22 05:45:16;;;;;;;14.60;2.60;;;;;;;18.95;68.92;100990.77;107559;1253;97815;-65
2023/09/22 05:47:45;;;;;;;21.10;3.20;;;;;;;18.95;68.62;100994.04;107618;1254;98350;-63
2023/09/22 05:50:13;;;;;;;16.20;2.70;;;;;;;19.02;68.57;100996.31;107580;1251;111159;-65
2023/09/22 05:52:42;;;;;;;8.50;2.60;;;;;;;19.06;68.73;101004.48;107596;1254;110124;-64
2023/09/22 05:55:12;;;;;;;8.30;3.10;;;;;;;19.09;68.52;101007.84;107601;1251;107658;-64
2023/09/22 05:57:41;;;;;;;7.30;2.80;;;;;;;19.18;68.57;101010.83;107588;1255;97848;-65
2023/09/22 06:00:16;;;;;;;8.70;2.90;;;;;;;19.27;68.34;101010.86;107555;1254;97728;-64
2023/09/22 06:02:49;;;;;;;9.50;3.20;;;;;;;19.33;68.03;101016.27;107600;1251;109757;-64
2023/09/22 06:05:23;;;;;;;13.80;2.80;;;;;;;19.42;67.93;101016.66;107647;1251;108974;-65
2023/09/22 06:07:51;;;;;;;8.00;2.50;;;;;;;19.52;67.68;101015.11;107582;1251;108692;-63
2023/09/22 06:10:20;;;;;;;11.00;3.40;;;;;;;19.55;67.53;101020.86;107549;1251;97829;-63
2023/09/22 06:12:49;;;;;;;11.50;3.50;;;;;;;19.57;67.38;101016.65;107588;1251;97707;-63
2023/09/22 06:15:18;;;;;;;13.80;4.50;;;;;;;19.61;67.35;101020.48;107573;1253;110135;-64
2023/09/22 06:17:46;;;;;;;13.60;3.60;;;;;;;19.70;67.35;101022.73;107572;1251;109661;-63
2023/09/22 06:20:15;;;;;;;12.80;3.20;;;;;;;19.78;67.21;101026.48;107456;1251;107183;-63
2023/09/22 06:22:49;;;;;;;8.90;3.20;;;;;;;19.88;67.22;101028.36;107525;1251;97706;-63
2023/09/22 06:25:21;;;;;;;18.80;2.80;;;;;;;20.01;67.22;101029.13;107534;1255;97725;-64
2023/09/22 06:27:52;;;;;;;13.60;3.30;;;;;;;20.14;67.07;101027.81;107521;1254;111708;-64
2023/09/22 06:30:21;;;;;;;11.00;2.90;;;;;;;20.27;66.96;101026.19;107595;1253;109961;-63
2023/09/22 06:32:49;;;;;;;5.20;2.70;;;;;;;20.44;66.71;101033.38;107580;1251;107162;-64
2023/09/22 06:35:18;;;;;;;9.00;2.90;;;;;;;20.58;66.54;101034.89;107594;1251;97871;-64
2023/09/22 06:37:46;;;;;;;18.70;3.10;;;;;;;20.72;66.36;101038.84;107545;1254;97931;-64
2023/09/22 06:40:16;;;;;;;15.50;5.00;;;;;;;20.84;65.82;101038.17;107576;1251;112040;-63
2023/09/22 06:42:45;;;;;;;9.50;3.40;;;;;;;20.93;65.41;101041.05;107606;1253;108829;-64
2023/09/22 06:45:18;;;;;;;9.90;3.30;;;;;;;21.01;65.38;101044.23;107486;1254;107825;-64
2023/09/22 06:47:46;;;;;;;6.20;2.70;;;;;;;21.13;64.83;101049.77;107540;1251;97809;-63
2023/09/22 06:50:15;;;;;;;10.70;3.30;;;;;;;21.28;64.62;101046.06;107624;1253;96330;-64
2023/09/22 06:52:43;;;;;;;12.40;2.40;;;;;;;21.45;64.50;101039.47;107613;1252;110971;-64
2023/09/22 06:55:13;;;;;;;12.70;2.80;;;;;;;21.63;64.09;101043.48;107565;1254;109818;-63
2023/09/22 06:57:43;;;;;;;17.20;2.70;;;;;;;21.82;63.65;101043.00;107597;1254;108550;-63
2023/09/22 07:00:18;;;;;;;11.00;4.30;;;;;;;21.98;63.14;101040.37;107531;1254;97852;-62
2023/09/22 07:02:48;;;;;;;11.40;3.40;;;;;;;22.14;62.24;101045.52;107635;1254;98379;-63
2023/09/22 07:05:20;;;;;;;18.40;3.50;;;;;;;22.27;61.59;101044.74;107614;1254;111207;-63
2023/09/22 07:07:52;;;;;;;5.80;2.90;;;;;;;22.40;61.47;101044.13;107620;1255;109858;-64
2023/09/22 07:10:23;;;;;;;14.00;3.30;;;;;;;22.52;60.13;101041.08;107507;1253;106729;-63
2023/09/22 07:12:52;;;;;;;6.30;2.70;;;;;;;22.61;59.35;101038.55;107583;1253;97908;-64
2023/09/22 07:15:23;;;;;;;17.00;3.20;;;;;;;22.69;59.37;101040.80;107558;1253;97927;-64
2023/09/22 07:17:51;;;;;;;15.60;3.20;;;;;;;22.76;59.42;101043.11;107585;1255;111904;-64
2023/09/22 07:20:21;;;;;;;11.60;2.90;;;;;;;22.83;59.32;101043.78;107628;1254;109914;-64
2023/09/22 07:22:50;;;;;;;8.00;3.20;;;;;;;22.90;58.73;101048.29;107529;1254;108529;-65
2023/09/22 07:25:18;;;;;;;9.20;3.40;;;;;;;22.92;58.57;101048.88;107630;1254;97739;-64
2023/09/22 07:27:46;;;;;;;5.00;2.30;;;;;;;22.93;58.52;101050.31;107583;1253;97738;-65
2023/09/22 07:30:18;;;;;;;8.40;2.90;;;;;;;22.94;58.44;101055.00;107611;1253;111887;-64
2023/09/22 07:32:47;;;;;;;7.30;2.70;;;;;;;22.97;58.40;101053.87;107455;1254;109681;-64
2023/09/22 07:35:16;;;;;;;18.80;3.60;;;;;;;22.96;58.38;101055.08;107497;1255;106829;-64
2023/09/22 07:37:45;;;;;;;15.50;4.00;;;;;;;23.02;58.57;101052.67;107526;1253;97826;-62
2023/09/22 07:40:14;;;;;;;9.90;3.10;;;;;;;23.09;58.64;101050.39;107595;1255;97923;-63
2023/09/22 07:42:44;;;;;;;16.60;2.80;;;;;;;23.16;58.49;101052.33;107494;1254;111789;-63
2023/09/22 07:45:13;;;;;;;8.40;2.70;;;;;;;23.26;58.51;101046.05;107536;1254;110136;-64
2023/09/22 07:47:42;;;;;;;8.50;2.60;;;;;;;23.40;58.35;101046.60;107522;1253;107517;-64
2023/09/22 07:50:11;;;;;;;4.10;2.90;;;;;;;23.51;57.87;101040.97;107595;1251;97824;-63
2023/09/22 07:52:42;;;;;;;8.70;2.70;;;;;;;23.63;57.47;101042.73;107624;1251;98443;-65
2023/09/22 07:55:14;;;;;;;6.90;2.80;;;;;;;23.78;56.54;101042.60;107650;1251;110707;-63
2023/09/22 07:57:47;;;;;;;17.20;3.20;;;;;;;23.90;55.81;101040.31;107520;1254;109296;-64
2023/09/22 08:00:18;;;;;;;12.80;3.40;;;;;;;24.07;56.30;101040.55;107598;1254;108217;-64
2023/09/22 08:02:47;;;;;;;6.10;2.50;;;;;;;24.27;55.39;101041.70;107565;1254;97824;-66
2023/09/22 08:05:16;;;;;;;9.50;2.60;;;;;;;24.43;54.14;101045.33;107624;1251;97828;-64
2023/09/22 08:07:45;;;;;;;4.80;2.10;;;;;;;24.58;53.44;101042.42;107629;1251;112109;-64
2023/09/22 08:10:13;;;;;;;11.30;2.70;;;;;;;24.81;51.57;101046.80;107531;1253;108451;-64
2023/09/22 08:12:42;;;;;;;7.10;2.30;;;;;;;24.94;50.68;101048.34;107548;1256;107650;-64
2023/09/22 08:15:11;;;;;;;5.00;1.90;;;;;;;25.01;50.31;101046.20;107584;1251;97816;-64
2023/09/22 08:17:39;;;;;;;13.50;2.20;;;;;;;25.08;50.72;101050.41;107559;1251;97717;-64
2023/09/22 08:20:12;;;;;;;7.70;2.00;;;;;;;25.16;49.37;101053.88;107586;1254;112153;-65
2023/09/22 08:22:42;;;;;;;5.80;2.20;;;;;;;25.22;49.49;101049.95;107600;1251;108639;-64
2023/09/22 08:25:10;;;;;;;8.80;2.40;;;;;;;25.29;49.64;101048.98;107564;1251;108654;-64
2023/09/22 08:27:40;;;;;;;6.50;1.90;;;;;;;25.39;49.17;101048.09;107531;1251;97724;-65
2023/09/22 08:30:13;;;;;;;4.60;2.20;;;;;;;25.45;48.87;101048.02;107565;1251;98891;-64
2023/09/22 08:32:44;;;;;;;10.50;2.20;;;;;;;25.51;48.85;101051.61;107583;1253;112347;-63
2023/09/22 08:35:15;;;;;;;6.70;2.20;;;;;;;25.62;48.89;101050.89;107654;1253;109757;-64
2023/09/22 08:37:44;;;;;;;4.10;2.10;;;;;;;25.79;48.90;101047.34;107556;1254;106754;-64
2023/09/22 08:40:15;;;;;;;7.60;2.20;;;;;;;25.97;48.28;101047.02;107603;1254;97953;-64
2023/09/22 08:42:47;;;;;;;8.30;2.60;;;;;;;26.14;48.44;101044.02;107580;1251;98396;-64
2023/09/22 08:45:16;;;;;;;9.30;2.20;;;;;;;26.31;48.14;101043.46;107621;1251;111839;-64
2023/09/22 08:47:47;;;;;;;10.40;2.70;;;;;;;26.52;48.04;101045.07;107556;1251;110105;-64
2023/09/22 08:50:18;;;;;;;7.30;2.40;;;;;;;26.71;47.80;101043.29;107550;1251;108745;-65
2023/09/22 08:52:53;;;;;;;11.20;2.60;;;;;;;26.77;46.86;101039.86;107553;1254;97823;-66
2023/09/22 08:55:23;;;;;;;13.10;2.80;;;;;;;26.75;45.78;101047.02;107510;1255;97950;-65
2023/09/22 08:57:53;;;;;;;11.70;2.20;;;;;;;26.65;45.42;101050.41;107546;1254;111891;-66
2023/09/22 09:00:26;;;;;;;11.70;2.20;;;;;;;26.50;45.40;101053.07;107573;1251;110145;-67
2023/09/22 09:03:00;;;;;;;10.80;2.00;;;;;;;26.35;45.94;101052.71;107462;1253;108719;-66
2023/09/22 09:05:32;;;;;;;6.50;2.00;;;;;;;26.20;46.63;101050.13;107548;1253;97867;-65
2023/09/22 09:08:14;;;;;;;6.90;2.30;;;;;;;26.15;46.83;101055.77;107533;1254;97965;-64
2023/09/22 09:10:45;;;;;;;6.60;2.10;;;;;;;26.01;47.02;101057.95;107607;1254;111346;-65
2023/09/22 09:13:16;;;;;;;11.70;2.40;;;;;;;25.88;47.29;101057.77;107594;1253;110445;-65
2023/09/22 09:15:49;;;;;;;7.30;2.30;;;;;;;25.80;47.70;101063.36;107545;1256;107504;-65
2023/09/22 09:18:19;;;;;;;;;;;;;;;25.74;47.85;101059.44;107607;1253;98508;-65
2023/09/22 09:21:04;;;;;;;8.10;2.40;;;;;;;25.70;48.13;101056.39;107552;1252;97860;-63
2023/09/22 09:23:33;;;;;;;7.60;1.90;;;;;;;25.73;48.40;101055.39;107554;1254;111896;-63
2023/09/22 09:26:02;;;;;;;10.10;2.30;;;;;;;25.75;48.24;101049.14;107629;1251;109353;-63
2023/09/22 09:28:39;;;;;;;9.30;2.30;;;;;;;25.78;48.39;101049.94;107595;1251;107799;-64
2023/09/22 09:31:09;;;;;;;9.70;2.10;;;;;;;25.82;48.65;101048.77;107607;1254;97837;-64
2023/09/22 09:33:53;;;;;;;6.60;1.90;;;;;;;25.87;48.66;101047.86;107597;1253;97720;-63
2023/09/22 09:36:21;;;;;;;15.80;2.80;;;;;;;25.89;48.35;101048.09;107536;1253;111277;-64
2023/09/22 09:38:50;;;;;;;7.20;2.00;;;;;;;25.88;48.27;101046.47;107588;1253;109308;-64
2023/09/22 09:41:20;;;;;;;6.30;2.30;;;;;;;25.84;48.20;101051.05;107586;1252;107257;-64
2023/09/22 09:43:51;;;;;;;11.70;1.80;;;;;;;25.80;48.21;101052.06;107563;1254;98044;-63
2023/09/22 09:46:21;;;;;;;9.00;2.20;;;;;;;25.73;48.13;101052.54;107573;1252;97802;-63
2023/09/22 09:48:52;;;;;;;9.20;2.10;;;;;;;25.66;48.43;101052.38;107591;1253;110794;-64
2023/09/22 09:51:24;;;;;;;17.80;3.00;;;;;;;25.59;48.35;101051.40;107548;1255;109997;-65
2023/09/22 09:53:58;;;;;;;5.50;1.90;;;;;;;25.51;48.81;101052.38;107569;1253;106748;-65
2023/09/22 09:56:27;;;;;;;6.00;1.90;;;;;;;25.45;48.92;101046.00;107557;1254;97851;-64
2023/09/22 09:58:56;;;;;;;6.60;2.00;;;;;;;25.38;48.85;101041.17;107605;1255;97902;-64
2023/09/22 10:01:25;;;;;;;3.70;1.90;;;;;;;25.31;48.92;101042.81;107585;1254;111366;-63
2023/09/22 10:03:55;;;;;;;7.80;2.20;;;;;;;25.26;48.95;101038.94;107603;1254;108859;-63
2023/09/22 10:06:25;;;;;;;14.90;2.50;;;;;;;25.21;49.18;101039.98;107519;1252;108660;-62
2023/09/22 10:09:04;;;;;;;13.10;2.40;;;;;;;25.17;49.51;101037.71;107268;1253;388305;-65
2023/09/22 10:11:33;;;;;;;18.90;2.90;;;;;;;25.14;49.62;101035.31;107594;1254;97897;-65
2023/09/22 10:14:01;;;;;;;13.10;2.20;;;;;;;25.15;49.83;101033.52;107568;1254;111133;-65
2023/09/22 10:16:30;;;;;;;12.90;2.80;;;;;;;25.17;49.73;101029.91;107596;1254;109441;-66
2023/09/22 10:18:59;;;;;;;8.40;2.30;;;;;;;25.19;49.78;101026.16;107523;1256;108635;-65
2023/09/22 10:21:28;;;;;;;8.40;2.40;;;;;;;25.23;49.94;101021.81;107582;1255;97936;-66
2023/09/22 10:24:28;;;;;;;9.10;2.00;;;;;;;25.28;50.01;101018.39;107573;1254;98396;-66
2023/09/22 10:26:56;;;;;;;7.10;2.20;;;;;;;25.37;49.99;101017.11;107613;1254;111955;-65
2023/09/22 10:29:34;;;;;;;11.90;2.30;;;;;;;25.43;49.93;101018.66;107599;1254;112163;-65
2023/09/22 10:32:19;;;;;;;11.10;2.40;;;;;;;25.52;49.94;101011.86;107579;1254;108645;-64
2023/09/22 10:34:53;;;;;;;8.00;1.90;;;;;;;25.62;49.63;101014.27;107514;1256;98073;-64
2023/09/22 10:37:31;;;;;;;5.50;2.20;;;;;;;25.73;49.40;101014.05;107620;1253;97818;-65
2023/09/22 10:40:16;;;;;;;12.50;2.50;;;;;;;25.82;49.18;101012.32;107583;1254;111915;-65
2023/09/22 10:42:50;;;;;;;15.50;2.20;;;;;;;25.93;49.04;101009.72;107608;1253;109905;-64
2023/09/22 10:45:25;;;;;;;16.20;2.40;;;;;;;26.08;49.31;101006.95;107612;1251;106741;-65
2023/09/22 10:47:56;;;;;;;11.10;2.70;;;;;;;26.28;48.85;101003.24;107513;1253;97842;-64
2023/09/22 10:50:30;;;;;;;5.00;1.80;;;;;;;26.49;48.28;100999.36;107499;1253;98385;-65
2023/09/22 10:53:04;;;;;;;10.40;2.20;;;;;;;26.65;47.83;100993.02;107559;1253;112250;-65
2023/09/22 10:55:36;;;;;;;8.10;2.30;;;;;;;26.85;47.74;100988.22;107547;1254;109513;-64
2023/09/22 10:58:09;;;;;;;14.10;2.30;;;;;;;27.07;47.20;100983.54;107520;1253;109128;-64
2023/09/22 11:00:40;;;;;;;5.20;2.70;;;;;;;27.32;46.96;100978.23;107539;1254;97836;-64
2023/09/22 11:03:10;;;;;;;15.50;2.30;;;;;;;27.66;46.07;100982.81;107576;1253;98463;-65
2023/09/22 11:05:42;;;;;;;4.90;2.50;;;;;;;28.09;44.64;100980.28;107557;1254;112109;-64
2023/09/22 11:08:15;;;;;;;10.10;1.90;;;;;;;28.60;44.70;100976.27;107597;1254;109275;-64
2023/09/22 11:10:48;;;;;;;7.20;2.00;;;;;;;29.55;44.08;100972.44;107547;1253;106302;-63
2023/09/22 11:13:18;;;;;;;8.40;2.60;;;;;;;30.08;42.33;100964.71;107586;1251;97890;-65
2023/09/22 11:15:56;;;;;;;10.10;2.40;;;;;;;30.41;42.01;100952.73;107617;1254;97870;-65
2023/09/22 11:18:28;;;;;;;9.80;2.30;;;;;;;30.64;41.17;100947.49;107548;1254;111660;-64
2023/09/22 11:21:12;;;;;;;5.60;1.90;;;;;;;30.64;40.75;100942.56;107599;1253;108455;-65
2023/09/22 11:23:41;;;;;;;5.80;2.40;;;;;;;30.58;41.26;100940.85;107532;1253;107272;-65